createdAt,value
2019-03-21T00:01:20.848Z,7.20
2019-03-21T00:03:49.790Z,7.77
2019-03-21T00:06:16.842Z,5.67
2019-03-21T00:08:44.553Z,5.20
2019-03-21T00:11:48.112Z,9.50
2019-03-21T00:14:54.806Z,7.27
2019-03-21T00:17:27.470Z,7.67
2019-03-21T00:19:54.689Z,5.27
2019-03-21T00:22:21.753Z,9.43
2019-03-21T00:24:48.786Z,6.77
2019-03-21T00:27:15.847Z,6.23
2019-03-21T00:29:43.049Z,6.63
2019-03-21T00:32:10.142Z,4.57
2019-03-21T00:34:37.181Z,4.60
2019-03-21T00:37:05.110Z,7.33
2019-03-21T00:39:33.101Z,7.17
2019-03-21T00:42:00.686Z,6.87
2019-03-21T00:44:27.729Z,5.80
2019-03-21T00:46:57.129Z,8.40
2019-03-21T00:49:28.489Z,5.27
2019-03-21T00:51:53.118Z,6.87
2019-03-21T00:54:23.197Z,6.33
2019-03-21T00:56:50.246Z,9.50
2019-03-21T00:59:17.698Z,7.13
2019-03-21T01:01:46.905Z,6.47
2019-03-21T01:04:14.072Z,7.07
2019-03-21T01:06:41.189Z,6.23
2019-03-21T01:09:09.703Z,5.90
2019-03-21T01:11:36.789Z,6.80
2019-03-21T01:14:08.278Z,6.60
2019-03-21T01:16:35.343Z,4.03
2019-03-21T01:19:02.520Z,5.47
2019-03-21T01:21:31.795Z,7.10
2019-03-21T01:23:59.124Z,6.20
2019-03-21T01:26:29.231Z,6.83
2019-03-21T01:28:59.292Z,8.23
2019-03-21T01:31:29.046Z,5.60
2019-03-21T01:33:58.961Z,8.53
2019-03-21T01:36:29.142Z,7.47
2019-03-21T01:38:59.081Z,8.50
2019-03-21T01:41:29.169Z,4.10
2019-03-21T01:43:59.257Z,6.70
2019-03-21T01:46:29.353Z,6.80
2019-03-21T01:48:56.467Z,6.83
2019-03-21T01:51:23.506Z,7.40
2019-03-21T01:53:50.957Z,5.67
2019-03-21T01:56:18.028Z,5.83
2019-03-21T01:58:45.363Z,6.20
2019-03-21T02:01:12.564Z,5.63
2019-03-21T02:03:39.956Z,5.13
2019-03-21T02:06:07.232Z,7.67
2019-03-21T02:08:34.306Z,5.30
2019-03-21T02:11:01.379Z,8.00
2019-03-21T02:13:28.625Z,6.37
2019-03-21T02:15:55.884Z,6.53
2019-03-21T02:18:23.214Z,7.57
2019-03-21T02:20:50.259Z,7.37
2019-03-21T02:23:17.302Z,7.70
2019-03-21T02:25:44.483Z,9.67
2019-03-21T02:28:11.605Z,5.90
2019-03-21T02:30:38.762Z,6.20
2019-03-21T02:33:18.254Z,5.33
2019-03-21T02:35:45.325Z,5.63
2019-03-21T02:38:20.272Z,6.13
2019-03-21T02:40:47.414Z,5.40
2019-03-21T02:43:14.676Z,4.87
2019-03-21T02:45:42.048Z,5.77
2019-03-21T02:48:09.356Z,7.37
2019-03-21T02:50:36.536Z,6.73
2019-03-21T02:53:03.877Z,8.33
2019-03-21T02:55:31.120Z,6.63
2019-03-21T02:57:58.944Z,8.63
2019-03-21T03:00:26.688Z,6.63
2019-03-21T03:02:55.846Z,6.10
2019-03-21T03:05:24.328Z,9.50
2019-03-21T03:07:54.396Z,5.70
2019-03-21T03:10:41.213Z,8.50
2019-03-21T03:13:08.304Z,4.43
2019-03-21T03:15:35.489Z,9.30
2019-03-21T03:18:03.143Z,5.60
2019-03-21T03:20:30.245Z,5.20
2019-03-21T03:22:57.325Z,7.70
2019-03-21T03:25:24.395Z,4.87
2019-03-21T03:27:52.484Z,5.67
2019-03-21T03:30:21.142Z,5.77
2019-03-21T03:32:49.313Z,9.80
2019-03-21T03:35:16.334Z,9.77
2019-03-21T03:37:43.667Z,6.27
2019-03-21T03:40:13.552Z,8.07
2019-03-21T03:42:41.976Z,6.47
2019-03-21T03:45:17.106Z,4.67
2019-03-21T03:47:44.163Z,6.53
2019-03-21T03:50:11.449Z,4.97
2019-03-21T03:52:43.948Z,6.37
2019-03-21T03:55:14.303Z,4.70
2019-03-21T03:57:41.745Z,7.03
2019-03-21T04:00:12.825Z,4.30
2019-03-21T04:02:52.038Z,5.80
2019-03-21T04:05:22.000Z,6.70
2019-03-21T04:07:49.646Z,8.17
2019-03-21T04:10:33.868Z,5.67
2019-03-21T04:13:00.921Z,5.03
2019-03-21T04:15:28.997Z,10.40
2019-03-21T04:17:56.321Z,5.57
2019-03-21T04:20:25.927Z,6.77
2019-03-21T04:22:53.244Z,6.63
2019-03-21T04:25:24.878Z,8.40
2019-03-21T04:27:52.390Z,6.10
2019-03-21T04:30:19.500Z,6.70
2019-03-21T04:32:46.857Z,9.43
2019-03-21T04:35:14.827Z,6.77
2019-03-21T04:37:42.109Z,6.97
2019-03-21T04:40:10.370Z,10.53
2019-03-21T04:42:37.496Z,7.10
2019-03-21T04:45:07.050Z,5.70
2019-03-21T04:47:34.079Z,6.43
2019-03-21T04:50:01.255Z,7.30
2019-03-21T04:52:28.454Z,7.07
2019-03-21T04:54:55.564Z,5.40
2019-03-21T04:57:22.619Z,8.17
2019-03-21T04:59:49.767Z,6.80
2019-03-21T05:02:17.294Z,5.50
2019-03-21T05:04:44.401Z,4.67
2019-03-21T05:07:13.960Z,7.67
2019-03-21T05:09:41.161Z,6.53
2019-03-21T05:12:08.290Z,5.87
2019-03-21T05:14:38.562Z,7.60
2019-03-21T05:17:05.701Z,8.10
2019-03-21T05:19:33.076Z,8.97
2019-03-21T05:22:00.123Z,6.67
2019-03-21T05:24:27.194Z,6.83
2019-03-21T05:26:54.275Z,12.20
2019-03-21T05:29:21.337Z,7.47
2019-03-21T05:31:51.348Z,8.17
2019-03-21T05:34:18.412Z,6.60
2019-03-21T05:36:45.601Z,7.10
2019-03-21T05:39:12.656Z,7.13
2019-03-21T05:41:39.891Z,7.77
2019-03-21T05:44:18.263Z,7.60
2019-03-21T05:46:51.198Z,6.13
2019-03-21T05:49:18.280Z,6.90
2019-03-21T05:51:48.094Z,7.23
2019-03-21T05:54:16.323Z,9.93
2019-03-21T05:56:44.260Z,7.00
2019-03-21T05:59:11.399Z,6.23
2019-03-21T06:01:38.484Z,7.30
2019-03-21T06:04:05.718Z,6.93
2019-03-21T06:06:57.353Z,8.50
2019-03-21T06:09:24.758Z,5.43
2019-03-21T06:11:54.794Z,8.67
2019-03-21T06:14:22.848Z,6.10
2019-03-21T06:16:49.882Z,6.83
2019-03-21T06:19:29.958Z,9.90
2019-03-21T06:22:46.857Z,7.33
2019-03-21T06:25:27.234Z,9.90
2019-03-21T06:27:54.328Z,8.53
2019-03-21T06:30:21.750Z,6.60
2019-03-21T06:32:48.823Z,9.27
2019-03-21T06:35:20.266Z,9.23
2019-03-21T06:37:47.383Z,11.10
2019-03-21T06:40:17.146Z,6.40
2019-03-21T06:42:44.199Z,6.30
2019-03-21T06:45:12.149Z,6.70
2019-03-21T06:47:43.594Z,11.80
2019-03-21T06:50:10.974Z,10.97
2019-03-21T06:52:38.050Z,6.87
2019-03-21T06:55:05.112Z,7.93
2019-03-21T06:57:33.694Z,6.00
2019-03-21T07:00:00.723Z,12.17
2019-03-21T07:02:28.118Z,7.03
2019-03-21T07:04:55.161Z,6.67
2019-03-21T07:07:22.203Z,7.27
2019-03-21T07:09:49.334Z,5.30
2019-03-21T07:12:18.829Z,14.00
2019-03-21T07:14:45.920Z,9.23
2019-03-21T07:17:13.152Z,8.63
2019-03-21T07:19:42.519Z,9.97
2019-03-21T07:22:09.608Z,9.70
2019-03-21T07:24:36.709Z,14.03
2019-03-21T07:27:03.843Z,9.83
2019-03-21T07:29:30.895Z,11.50
2019-03-21T07:31:58.814Z,11.23
2019-03-21T07:34:25.829Z,7.77
2019-03-21T07:36:54.011Z,11.43
2019-03-21T07:39:21.156Z,10.87
2019-03-21T07:41:48.876Z,9.93
2019-03-21T07:44:15.944Z,11.03
2019-03-21T07:46:43.017Z,10.30
2019-03-21T07:49:12.910Z,7.47
2019-03-21T07:51:40.812Z,8.37
2019-03-21T07:54:09.002Z,6.87
2019-03-21T07:56:36.322Z,7.17
2019-03-21T07:59:03.720Z,8.17
2019-03-21T08:01:31.245Z,7.20
2019-03-21T08:03:59.140Z,6.10
2019-03-21T08:06:28.307Z,10.17
2019-03-21T08:08:56.565Z,9.00
2019-03-21T08:11:23.657Z,8.43
2019-03-21T08:13:50.962Z,13.30
2019-03-21T08:16:18.317Z,9.70
2019-03-21T08:18:46.464Z,7.83
2019-03-21T08:21:15.078Z,9.07
2019-03-21T08:23:42.391Z,7.93
2019-03-21T08:26:09.441Z,7.47
2019-03-21T08:28:41.510Z,9.37
2019-03-21T08:31:16.037Z,10.50
2019-03-21T08:33:43.667Z,7.80
2019-03-21T08:36:19.713Z,10.63
2019-03-21T08:39:02.074Z,9.30
2019-03-21T08:41:29.145Z,6.53
2019-03-21T08:43:56.349Z,8.30
2019-03-21T08:46:23.554Z,8.73
2019-03-21T08:48:50.768Z,9.83
2019-03-21T08:51:17.898Z,8.07
2019-03-21T08:53:45.410Z,7.73
2019-03-21T08:56:14.701Z,9.10
2019-03-21T08:58:42.180Z,9.50
2019-03-21T09:01:09.379Z,9.80
2019-03-21T09:03:36.487Z,12.63
2019-03-21T09:06:04.264Z,10.70
2019-03-21T09:08:31.376Z,10.47
2019-03-21T09:10:59.741Z,10.73
2019-03-21T09:13:28.142Z,8.80
2019-03-21T09:15:55.378Z,12.53
2019-03-21T09:18:22.438Z,10.13
2019-03-21T09:20:50.356Z,12.33
2019-03-21T09:23:17.455Z,11.07
2019-03-21T09:25:45.739Z,10.93
2019-03-21T09:28:14.215Z,13.00
2019-03-21T09:30:41.578Z,11.60
2019-03-21T09:33:08.687Z,11.93
2019-03-21T09:35:35.841Z,10.87
2019-03-21T09:38:02.904Z,12.23
2019-03-21T09:40:30.146Z,9.73
2019-03-21T09:42:57.305Z,10.60
2019-03-21T09:45:24.394Z,12.10
2019-03-21T09:47:55.485Z,13.00
2019-03-21T09:50:27.421Z,11.67
2019-03-21T09:52:54.514Z,11.27
2019-03-21T09:55:21.721Z,8.37
2019-03-21T09:57:54.383Z,9.20
2019-03-21T10:00:29.005Z,9.47
2019-03-21T10:02:56.328Z,12.07
2019-03-21T10:05:23.652Z,10.30
2019-03-21T10:07:50.753Z,11.17
2019-03-21T10:10:25.805Z,10.87
2019-03-21T10:12:55.431Z,13.00
2019-03-21T10:15:21.852Z,16.50
2019-03-21T10:17:50.274Z,13.20
2019-03-21T10:20:18.103Z,11.90
2019-03-21T10:22:47.322Z,11.43
2019-03-21T10:25:14.567Z,12.80
2019-03-21T10:27:41.830Z,13.60
2019-03-21T10:30:09.877Z,11.03
2019-03-21T10:32:37.092Z,14.03
2019-03-21T10:35:04.968Z,17.63
2019-03-21T10:37:32.282Z,11.33
2019-03-21T10:39:59.256Z,9.80
2019-03-21T10:42:27.605Z,12.20
2019-03-21T10:44:54.970Z,10.40
2019-03-21T10:47:22.214Z,12.03
2019-03-21T10:49:49.733Z,12.53
2019-03-21T10:52:16.792Z,10.77
2019-03-21T10:54:43.870Z,14.47
2019-03-21T10:57:10.969Z,10.17
2019-03-21T10:59:38.197Z,9.63
2019-03-21T11:02:07.608Z,10.23
2019-03-21T11:04:35.173Z,13.33
2019-03-21T11:07:01.244Z,11.60
2019-03-21T11:09:28.895Z,12.60
2019-03-21T11:11:56.258Z,11.20
2019-03-21T11:14:23.505Z,13.43
2019-03-21T11:16:50.620Z,11.47
2019-03-21T11:19:18.135Z,11.00
2019-03-21T11:21:45.223Z,10.70
2019-03-21T11:24:12.317Z,10.57
2019-03-21T11:26:39.448Z,11.40
2019-03-21T11:29:06.896Z,9.90
2019-03-21T11:31:33.932Z,8.80
2019-03-21T11:34:01.458Z,10.67
2019-03-21T11:36:37.832Z,12.10
2019-03-21T11:39:00.291Z,10.97
2019-03-21T11:41:27.455Z,8.83
2019-03-21T11:43:54.527Z,10.87
2019-03-21T11:46:21.620Z,9.90
2019-03-21T11:48:49.831Z,13.10
2019-03-21T11:51:17.015Z,11.30
2019-03-21T11:53:44.084Z,12.07
2019-03-21T11:56:13.090Z,9.63
2019-03-21T11:58:40.377Z,11.20
2019-03-21T12:01:07.456Z,9.37
2019-03-21T12:03:35.372Z,12.10
2019-03-21T12:06:02.684Z,7.50
2019-03-21T12:08:32.063Z,10.27
2019-03-21T12:10:59.188Z,8.30
2019-03-21T12:13:28.213Z,12.40
2019-03-21T12:15:55.324Z,10.87
2019-03-21T12:18:22.529Z,8.53
2019-03-21T12:20:49.729Z,9.10
2019-03-21T12:23:16.809Z,8.83
2019-03-21T12:25:44.017Z,10.20
2019-03-21T12:28:11.132Z,9.00
2019-03-21T12:30:41.675Z,8.53
2019-03-21T12:33:09.291Z,7.67
2019-03-21T12:35:38.853Z,7.83
2019-03-21T12:38:06.178Z,12.20
2019-03-21T12:40:33.665Z,8.83
2019-03-21T12:43:04.333Z,8.43
2019-03-21T12:45:31.593Z,9.70
2019-03-21T12:48:00.260Z,12.10
2019-03-21T12:50:27.592Z,10.53
2019-03-21T12:52:54.775Z,11.53
2019-03-21T12:55:22.298Z,10.40
2019-03-21T12:57:49.475Z,10.00
2019-03-21T13:00:31.739Z,13.43
2019-03-21T13:02:59.007Z,9.30
2019-03-21T13:05:27.402Z,8.80
2019-03-21T13:07:54.613Z,11.23
2019-03-21T13:10:21.772Z,9.97
2019-03-21T13:12:48.916Z,9.70
2019-03-21T13:15:16.025Z,9.57
2019-03-21T13:17:43.277Z,9.53
2019-03-21T13:20:10.455Z,10.03
2019-03-21T13:22:39.927Z,10.07
2019-03-21T13:25:07.122Z,13.87
2019-03-21T13:27:34.194Z,9.73
2019-03-21T13:30:03.626Z,12.27
2019-03-21T13:32:30.431Z,9.37
2019-03-21T13:34:59.710Z,11.23
2019-03-21T13:37:26.676Z,9.47
2019-03-21T13:39:54.070Z,9.47
2019-03-21T13:42:22.262Z,9.60
2019-03-21T13:44:49.506Z,8.40
2019-03-21T13:47:16.584Z,8.17
2019-03-21T13:49:44.065Z,9.03
2019-03-21T13:52:11.282Z,7.83
2019-03-21T13:54:40.322Z,10.87
2019-03-21T13:57:14.528Z,10.17
2019-03-21T13:59:41.580Z,11.47
2019-03-21T14:02:08.776Z,10.13
2019-03-21T14:04:36.087Z,11.77
2019-03-21T14:07:04.167Z,8.23
2019-03-21T14:09:32.075Z,9.80
2019-03-21T14:11:59.344Z,8.50
2019-03-21T14:14:26.448Z,11.77
2019-03-21T14:16:53.676Z,7.43
2019-03-21T14:19:20.965Z,9.53
2019-03-21T14:21:48.539Z,11.03
2019-03-21T14:24:16.653Z,8.67
2019-03-21T14:26:43.787Z,10.23
2019-03-21T14:29:12.938Z,7.67
2019-03-21T14:31:40.203Z,8.37
2019-03-21T14:34:08.228Z,7.93
2019-03-21T14:36:35.930Z,11.30
2019-03-21T14:39:05.413Z,12.47
2019-03-21T14:41:32.537Z,8.80
2019-03-21T14:44:00.180Z,7.17
2019-03-21T14:46:27.269Z,11.60
2019-03-21T14:48:56.065Z,10.50
2019-03-21T14:51:23.139Z,10.17
2019-03-21T14:53:50.503Z,8.60
2019-03-21T14:56:26.867Z,8.67
2019-03-21T14:58:54.048Z,11.07
2019-03-21T15:01:21.170Z,9.63
2019-03-21T15:03:48.203Z,7.10
2019-03-21T15:06:15.464Z,7.40
2019-03-21T15:08:45.106Z,10.23
2019-03-21T15:11:17.396Z,8.27
2019-03-21T15:13:42.590Z,8.70
2019-03-21T15:16:10.183Z,9.03
2019-03-21T15:18:37.622Z,9.43
2019-03-21T15:21:05.000Z,14.90
2019-03-21T15:23:40.650Z,13.27
2019-03-21T15:26:04.046Z,12.33
2019-03-21T15:28:32.171Z,13.17
2019-03-21T15:31:00.426Z,10.50
2019-03-21T15:33:27.841Z,10.73
2019-03-21T15:35:55.487Z,10.00
2019-03-21T15:38:22.861Z,12.10
2019-03-21T15:40:51.558Z,14.43
2019-03-21T15:43:20.999Z,9.87
2019-03-21T15:45:50.051Z,15.07
2019-03-21T15:48:20.832Z,13.30
2019-03-21T15:50:48.872Z,14.73
2019-03-21T15:53:16.925Z,12.50
2019-03-21T15:55:46.437Z,13.93
2019-03-21T15:58:14.110Z,13.73
2019-03-21T16:00:41.851Z,12.10
2019-03-21T16:03:09.549Z,10.83
2019-03-21T16:05:37.066Z,10.80
2019-03-21T16:08:05.101Z,12.03
2019-03-21T16:10:33.796Z,15.73
2019-03-21T16:13:00.892Z,13.03
2019-03-21T16:15:28.535Z,15.43
2019-03-21T16:17:57.427Z,13.77
2019-03-21T16:20:25.352Z,12.53
2019-03-21T16:22:52.521Z,13.63
2019-03-21T16:25:19.833Z,12.87
2019-03-21T16:27:46.947Z,14.60
2019-03-21T16:30:14.573Z,17.17
2019-03-21T16:32:43.530Z,20.20
2019-03-21T16:35:11.279Z,12.50
2019-03-21T16:37:38.384Z,14.03
2019-03-21T16:40:06.892Z,12.23
2019-03-21T16:42:37.129Z,13.80
2019-03-21T16:45:06.583Z,14.63
2019-03-21T16:47:34.591Z,12.83
2019-03-21T16:50:05.476Z,11.83
2019-03-21T16:52:32.782Z,14.20
2019-03-21T16:55:01.398Z,12.17
2019-03-21T16:57:28.550Z,14.97
2019-03-21T16:59:55.785Z,14.40
2019-03-21T17:02:30.383Z,9.80
2019-03-21T17:04:57.442Z,13.77
2019-03-21T17:07:24.641Z,14.60
2019-03-21T17:09:51.729Z,15.63
2019-03-21T17:12:19.147Z,10.50
2019-03-21T17:14:48.271Z,11.13
2019-03-21T17:17:15.619Z,16.40
2019-03-21T17:19:42.834Z,12.53
2019-03-21T17:22:10.865Z,14.27
2019-03-21T17:24:38.037Z,16.83
2019-03-21T17:27:05.411Z,14.40
2019-03-21T17:29:34.920Z,10.87
2019-03-21T17:32:02.776Z,15.07
2019-03-21T17:34:31.382Z,15.47
2019-03-21T17:36:58.505Z,15.43
2019-03-21T17:39:27.864Z,15.87
2019-03-21T17:41:57.143Z,18.30
2019-03-21T17:44:24.260Z,15.57
2019-03-21T17:46:51.994Z,14.20
2019-03-21T17:49:20.231Z,19.03
2019-03-21T17:51:47.292Z,15.60
2019-03-21T17:54:16.774Z,16.27
2019-03-21T17:56:43.856Z,15.63
2019-03-21T17:59:11.181Z,18.97
2019-03-21T18:01:38.250Z,16.17
2019-03-21T18:04:05.809Z,16.30
2019-03-21T18:06:32.888Z,16.90
2019-03-21T18:08:59.920Z,14.70
2019-03-21T18:11:26.926Z,14.63
2019-03-21T18:13:54.147Z,16.43
2019-03-21T18:16:21.204Z,14.17
2019-03-21T18:18:48.314Z,21.13
2019-03-21T18:21:26.428Z,17.00
2019-03-21T18:23:54.348Z,21.13
2019-03-21T18:26:22.489Z,21.60
2019-03-21T18:28:49.817Z,22.40
2019-03-21T18:31:16.820Z,26.33
2019-03-21T18:33:43.877Z,48.67
2019-03-21T18:36:15.222Z,41.37
2019-03-21T18:38:42.231Z,45.80
2019-03-21T18:41:09.728Z,42.00
2019-03-21T18:43:36.779Z,51.10
2019-03-21T18:46:04.228Z,47.70
2019-03-21T18:48:31.260Z,54.33
2019-03-21T18:50:58.370Z,46.50
2019-03-21T18:53:25.493Z,45.07
2019-03-21T18:55:53.565Z,45.63
2019-03-21T18:58:20.851Z,44.73
2019-03-21T19:00:48.071Z,37.20
2019-03-21T19:03:17.234Z,24.07
2019-03-21T19:05:45.539Z,21.13
2019-03-21T19:08:14.769Z,18.93
2019-03-21T19:10:42.005Z,20.40
2019-03-21T19:13:09.227Z,18.67
2019-03-21T19:15:36.913Z,16.87
2019-03-21T19:18:05.815Z,19.17
2019-03-21T19:20:33.549Z,14.40
2019-03-21T19:23:03.208Z,19.10
2019-03-21T19:25:31.447Z,20.30
2019-03-21T19:28:00.404Z,15.73
2019-03-21T19:30:28.302Z,18.43
2019-03-21T19:32:57.439Z,18.53
2019-03-21T19:35:25.375Z,14.47
2019-03-21T19:37:53.658Z,17.87
2019-03-21T19:40:21.824Z,20.40
2019-03-21T19:42:50.145Z,18.33
2019-03-21T19:45:18.838Z,18.43
2019-03-21T19:47:47.111Z,16.80
2019-03-21T19:50:15.514Z,21.87
2019-03-21T19:52:44.100Z,17.57
2019-03-21T19:55:15.112Z,16.60
2019-03-21T19:57:47.087Z,18.93
2019-03-21T20:00:17.620Z,15.27
2019-03-21T20:02:49.189Z,19.57
2019-03-21T20:05:16.791Z,16.67
2019-03-21T20:07:44.391Z,21.43
2019-03-21T20:10:17.828Z,15.77
2019-03-21T20:12:48.340Z,15.83
2019-03-21T20:15:17.489Z,19.37
2019-03-21T20:17:45.219Z,20.07
2019-03-21T20:20:16.325Z,17.83
2019-03-21T20:22:44.073Z,19.70
2019-03-21T20:25:14.782Z,16.03
2019-03-21T20:27:43.031Z,19.77
2019-03-21T20:30:16.259Z,17.70
2019-03-21T20:32:45.788Z,19.03
2019-03-21T20:35:13.250Z,22.37
2019-03-21T20:37:44.025Z,20.10
2019-03-21T20:40:15.049Z,21.20
2019-03-21T20:42:42.327Z,20.07
2019-03-21T20:45:10.986Z,18.37
2019-03-21T20:47:38.048Z,18.33
2019-03-21T20:50:10.875Z,16.77
2019-03-21T20:52:38.688Z,19.80
2019-03-21T20:55:14.341Z,17.20
2019-03-21T20:57:44.275Z,16.93
2019-03-21T21:00:17.246Z,17.87
2019-03-21T21:02:44.573Z,18.77
2019-03-21T21:05:12.013Z,19.43
2019-03-21T21:07:40.471Z,20.27
2019-03-21T21:10:07.707Z,20.03
2019-03-21T21:12:35.194Z,18.53
2019-03-21T21:15:02.948Z,18.27
2019-03-21T21:17:38.072Z,18.50
2019-03-21T21:20:06.205Z,19.60
2019-03-21T21:22:33.254Z,18.63
2019-03-21T21:25:03.311Z,18.10
2019-03-21T21:27:31.600Z,19.90
2019-03-21T21:29:58.637Z,20.60
2019-03-21T21:32:28.092Z,19.73
2019-03-21T21:34:55.195Z,17.37
2019-03-21T21:37:22.293Z,20.97
2019-03-21T21:39:49.475Z,20.07
2019-03-21T21:42:24.194Z,24.10
2019-03-21T21:44:51.254Z,19.53
2019-03-21T21:47:18.561Z,21.93
2019-03-21T21:49:45.687Z,23.90
2019-03-21T21:52:12.934Z,19.73
2019-03-21T21:54:40.073Z,20.10
2019-03-21T21:57:07.138Z,19.53
2019-03-21T21:59:34.150Z,22.80
2019-03-21T22:02:01.232Z,20.10
2019-03-21T22:04:28.372Z,18.37
2019-03-21T22:06:55.415Z,22.70
2019-03-21T22:09:23.564Z,20.63
2019-03-21T22:11:53.837Z,19.07
2019-03-21T22:14:20.891Z,19.90
2019-03-21T22:16:48.032Z,20.50
2019-03-21T22:19:15.076Z,21.93
2019-03-21T22:21:42.473Z,20.63
2019-03-21T22:24:11.570Z,21.47
2019-03-21T22:26:38.657Z,21.73
2019-03-21T22:29:05.706Z,20.07
2019-03-21T22:31:32.748Z,20.87
2019-03-21T22:33:59.807Z,22.33
2019-03-21T22:36:26.894Z,17.87
2019-03-21T22:38:53.912Z,19.67
2019-03-21T22:41:20.985Z,21.13
2019-03-21T22:43:48.082Z,22.90
2019-03-21T22:46:15.241Z,19.03
2019-03-21T22:48:42.532Z,23.87
2019-03-21T22:51:09.645Z,23.70
2019-03-21T22:53:36.920Z,22.10
2019-03-21T22:56:04.041Z,21.47
2019-03-21T22:58:33.160Z,24.83
2019-03-21T23:01:02.117Z,23.67
2019-03-21T23:03:29.202Z,25.37
2019-03-21T23:05:56.289Z,23.13
2019-03-21T23:08:23.818Z,22.50
2019-03-21T23:10:51.234Z,23.33
2019-03-21T23:13:18.392Z,20.53
2019-03-21T23:15:45.553Z,20.17
2019-03-21T23:18:12.659Z,22.13
2019-03-21T23:20:39.780Z,21.43
2019-03-21T23:23:07.199Z,20.57
2019-03-21T23:25:34.629Z,20.50
2019-03-21T23:28:02.035Z,20.87
2019-03-21T23:30:29.223Z,22.47
2019-03-21T23:32:56.262Z,25.57
2019-03-21T23:35:23.427Z,20.23
2019-03-21T23:37:52.972Z,21.83
2019-03-21T23:40:20.258Z,22.33
2019-03-21T23:42:47.267Z,24.57
2019-03-21T23:45:14.463Z,22.17
2019-03-21T23:47:41.692Z,23.33
2019-03-21T23:50:08.905Z,26.73
2019-03-21T23:52:36.025Z,24.40
2019-03-21T23:55:03.670Z,22.87
2019-03-21T23:57:30.696Z,23.13
2019-03-21T23:59:57.735Z,23.73
